Chilton, Texas
Current Conditions -  °F | °C
As of 10:15 AM on Monday 24 Nov 2014 (Local Time) from KPWG Reporting Station
Clear Clear  
Wind Chill: 52°   Ceiling: Unl
Heat Index: 52°   Visibility: 10mi
Dew Point: 34°   Wind: 10mph
Humidity: 50%   Direction: 350°N
Pressure: 30.11"   Gusts: NA
Location:  31.28°N, 97.06°W
Report Text: KPWG 241615Z AUTO 35009KT 10SM CLR 11/01 A3011 RMK AO1
Loading
Personal Weather Stations






























Interactive Weather Map New forecast layout! Learn more

10-Day Weather Forecast

Advertisements
Track Severe Weather on mobile